createdAt,value
2017-08-07T00:01:01.589Z,99.90
2017-08-07T00:03:29.126Z,99.90
2017-08-07T00:05:56.670Z,99.90
2017-08-07T00:08:24.198Z,99.90
2017-08-07T00:10:52.546Z,99.90
2017-08-07T00:13:20.114Z,99.90
2017-08-07T00:15:47.769Z,99.90
2017-08-07T00:18:15.338Z,99.90
2017-08-07T00:20:42.973Z,99.90
2017-08-07T00:23:10.533Z,99.90
2017-08-07T00:25:38.069Z,99.90
2017-08-07T00:28:05.670Z,99.90
2017-08-07T00:30:33.219Z,99.90
2017-08-07T00:33:00.790Z,99.90
2017-08-07T00:35:28.342Z,99.90
2017-08-07T00:37:55.901Z,99.90
2017-08-07T00:40:23.470Z,99.90
2017-08-07T00:42:51.385Z,99.90
2017-08-07T00:45:19.722Z,99.90
2017-08-07T00:47:47.383Z,99.90
2017-08-07T00:50:14.951Z,99.90
2017-08-07T00:52:42.508Z,99.90
2017-08-07T00:55:10.065Z,99.90
2017-08-07T00:57:37.832Z,99.90
2017-08-07T01:00:05.394Z,99.90
2017-08-07T01:02:32.955Z,99.90
2017-08-07T01:05:00.510Z,99.90
2017-08-07T01:07:28.075Z,99.90
2017-08-07T01:09:55.725Z,99.90
2017-08-07T01:12:23.298Z,99.90
2017-08-07T01:14:50.956Z,99.90
2017-08-07T01:17:18.513Z,99.90
2017-08-07T01:19:46.278Z,99.90
2017-08-07T01:22:13.839Z,99.90
2017-08-07T01:24:41.517Z,99.90
2017-08-07T01:27:09.042Z,99.90
2017-08-07T01:29:36.569Z,99.90
2017-08-07T01:32:04.098Z,99.90
2017-08-07T01:34:31.666Z,99.90
2017-08-07T01:36:59.222Z,99.90
2017-08-07T01:39:26.771Z,99.90
2017-08-07T01:41:54.330Z,99.90
2017-08-07T01:44:21.873Z,99.90
2017-08-07T01:46:49.458Z,99.90
2017-08-07T01:49:17.021Z,99.90
2017-08-07T01:51:44.690Z,99.90
2017-08-07T01:54:12.242Z,99.90
2017-08-07T01:56:39.894Z,99.90
2017-08-07T01:59:07.471Z,99.90
2017-08-07T02:01:34.993Z,99.90
2017-08-07T02:04:02.581Z,99.90
2017-08-07T02:06:30.150Z,99.90
2017-08-07T02:08:57.702Z,99.90
2017-08-07T02:11:25.272Z,99.90
2017-08-07T02:13:52.931Z,99.90
2017-08-07T02:16:20.490Z,99.90
2017-08-07T02:18:48.046Z,99.90
2017-08-07T02:21:15.606Z,99.90
2017-08-07T02:23:43.173Z,99.90
2017-08-07T02:26:10.737Z,99.90
2017-08-07T02:28:38.262Z,99.90
2017-08-07T02:31:05.859Z,99.90
2017-08-07T02:33:33.395Z,99.90
2017-08-07T02:36:00.990Z,99.90
2017-08-07T02:38:28.536Z,99.90
2017-08-07T02:40:56.399Z,99.90
2017-08-07T02:43:23.940Z,99.90
2017-08-07T02:45:51.536Z,99.90
2017-08-07T02:48:19.115Z,99.90
2017-08-07T02:50:46.654Z,99.90
2017-08-07T02:53:14.216Z,99.90
2017-08-07T02:55:41.779Z,99.90
2017-08-07T02:58:09.338Z,99.90
2017-08-07T03:00:36.894Z,99.90
2017-08-07T03:03:04.767Z,99.90
2017-08-07T03:05:32.311Z,99.90
2017-08-07T03:07:59.885Z,99.90
2017-08-07T03:10:27.423Z,99.90
2017-08-07T03:12:54.954Z,99.90
2017-08-07T03:15:23.249Z,99.90
2017-08-07T03:17:50.838Z,99.90
2017-08-07T03:20:18.405Z,99.90
2017-08-07T03:22:45.966Z,99.90
2017-08-07T03:25:13.497Z,99.90
2017-08-07T03:27:41.093Z,99.90
2017-08-07T03:30:08.650Z,99.90
2017-08-07T03:32:36.178Z,99.90
2017-08-07T03:35:03.707Z,99.90
2017-08-07T03:37:32.038Z,99.90
2017-08-07T03:39:59.602Z,99.90
2017-08-07T03:42:27.130Z,99.90
2017-08-07T03:44:54.657Z,99.90
2017-08-07T03:47:22.197Z,99.90
2017-08-07T03:49:49.751Z,99.90
2017-08-07T03:52:17.283Z,99.90
2017-08-07T03:54:44.863Z,99.90
2017-08-07T03:57:12.399Z,99.90
2017-08-07T03:59:40.018Z,99.90
2017-08-07T04:02:07.561Z,99.90
2017-08-07T04:04:35.120Z,99.90
2017-08-07T04:07:02.769Z,99.90
2017-08-07T04:09:30.338Z,99.90
2017-08-07T04:11:57.992Z,99.90
2017-08-07T04:14:25.571Z,99.90
2017-08-07T04:16:53.224Z,99.90
2017-08-07T04:19:20.796Z,99.90
2017-08-07T04:21:48.350Z,99.90
2017-08-07T04:24:15.874Z,99.90
2017-08-07T04:26:43.462Z,99.90
2017-08-07T04:29:10.993Z,99.90
2017-08-07T04:31:38.522Z,99.90
2017-08-07T04:34:06.049Z,99.90
2017-08-07T04:36:33.610Z,99.90
2017-08-07T04:39:01.167Z,99.90
2017-08-07T04:41:28.724Z,99.90
2017-08-07T04:43:56.299Z,99.90
2017-08-07T04:46:23.845Z,99.90
2017-08-07T04:48:51.404Z,99.90
2017-08-07T04:51:18.941Z,99.90
2017-08-07T04:53:46.533Z,99.90
2017-08-07T04:56:14.081Z,99.90
2017-08-07T04:58:41.757Z,99.90
2017-08-07T05:01:09.290Z,99.90
2017-08-07T05:03:36.888Z,99.90
2017-08-07T05:06:04.420Z,99.90
2017-08-07T05:08:32.018Z,99.90
2017-08-07T05:10:59.549Z,99.90
2017-08-07T05:13:27.087Z,99.90
2017-08-07T05:15:54.690Z,99.90
2017-08-07T05:18:22.223Z,99.90
2017-08-07T05:20:49.756Z,99.90
2017-08-07T05:23:18.818Z,99.90
2017-08-07T05:25:46.463Z,99.90
2017-08-07T05:28:13.994Z,99.90
2017-08-07T05:30:41.586Z,99.90
2017-08-07T05:33:09.139Z,99.90
2017-08-07T05:35:36.726Z,99.90
2017-08-07T05:38:04.363Z,99.90
2017-08-07T05:40:31.930Z,99.90
2017-08-07T05:42:59.489Z,99.90
2017-08-07T05:45:27.052Z,99.90
2017-08-07T05:47:55.270Z,99.90
2017-08-07T05:50:23.697Z,99.90
2017-08-07T05:52:51.361Z,99.90
2017-08-07T05:55:18.926Z,99.90
2017-08-07T05:57:46.453Z,99.90
2017-08-07T06:00:13.995Z,99.90
2017-08-07T06:02:42.322Z,99.90
2017-08-07T06:05:09.894Z,99.90
2017-08-07T06:07:37.459Z,99.90
2017-08-07T06:10:05.001Z,99.90
2017-08-07T06:12:32.568Z,99.90
2017-08-07T06:15:00.127Z,99.90
2017-08-07T06:17:27.787Z,99.90
2017-08-07T06:19:55.322Z,99.90
2017-08-07T06:22:22.908Z,99.90
2017-08-07T06:24:50.451Z,99.90
2017-08-07T06:27:18.041Z,99.90
2017-08-07T06:29:45.566Z,99.90
2017-08-07T06:32:13.154Z,99.90
2017-08-07T06:34:40.686Z,99.90
2017-08-07T06:37:08.286Z,99.90
2017-08-07T06:39:35.851Z,99.90
2017-08-07T06:42:03.418Z,99.90
2017-08-07T06:44:30.978Z,99.90
2017-08-07T06:46:58.538Z,99.90
2017-08-07T06:49:26.187Z,99.90
2017-08-07T06:51:53.961Z,99.90
2017-08-07T06:54:21.526Z,99.90
2017-08-07T06:56:49.082Z,99.90
2017-08-07T06:59:16.747Z,99.90
2017-08-07T07:01:44.274Z,99.90
2017-08-07T07:04:11.841Z,99.90
2017-08-07T07:06:39.376Z,99.90
2017-08-07T07:09:07.705Z,99.90
2017-08-07T07:11:35.258Z,99.90
2017-08-07T07:14:02.805Z,99.90
2017-08-07T07:16:30.379Z,99.90
2017-08-07T07:18:57.911Z,99.90
2017-08-07T07:21:25.494Z,99.90
2017-08-07T07:23:53.073Z,99.90
2017-08-07T07:26:20.723Z,99.90
2017-08-07T07:28:48.281Z,99.90
2017-08-07T07:31:15.851Z,99.90
2017-08-07T07:33:43.390Z,99.90
2017-08-07T07:36:11.070Z,99.90
2017-08-07T07:38:38.626Z,99.90
2017-08-07T07:41:06.187Z,99.90
2017-08-07T07:43:33.753Z,99.90
2017-08-07T07:46:01.287Z,99.90
2017-08-07T07:48:28.847Z,99.90
2017-08-07T07:50:56.440Z,99.90
2017-08-07T07:53:23.989Z,99.90
2017-08-07T07:55:51.550Z,98.20
2017-08-07T07:58:19.111Z,99.90
2017-08-07T08:00:46.646Z,99.90
2017-08-07T08:03:14.250Z,99.90
2017-08-07T08:05:41.779Z,98.70
2017-08-07T08:08:09.335Z,96.70
2017-08-07T08:10:36.858Z,99.00
2017-08-07T08:13:04.387Z,99.90
2017-08-07T08:15:31.942Z,99.90
2017-08-07T08:17:59.498Z,99.10
2017-08-07T08:20:27.167Z,99.90
2017-08-07T08:22:54.733Z,99.90
2017-08-07T08:25:22.399Z,99.00
2017-08-07T08:27:49.939Z,98.70
2017-08-07T08:30:17.514Z,99.90
2017-08-07T08:32:45.078Z,99.40
2017-08-07T08:35:12.734Z,99.90
2017-08-07T08:37:40.306Z,99.60
2017-08-07T08:40:07.858Z,99.90
2017-08-07T08:42:35.390Z,99.90
2017-08-07T08:45:02.963Z,97.60
2017-08-07T08:47:30.493Z,96.50
2017-08-07T08:49:58.794Z,96.30
2017-08-07T08:52:26.327Z,96.20
2017-08-07T08:54:54.653Z,99.20
2017-08-07T08:57:22.210Z,99.00
2017-08-07T08:59:49.786Z,99.60
2017-08-07T09:02:17.316Z,96.10
2017-08-07T09:04:44.855Z,99.90
2017-08-07T09:07:12.386Z,99.90
2017-08-07T09:09:39.919Z,95.80
2017-08-07T09:12:07.473Z,99.90
2017-08-07T09:14:35.012Z,97.20
2017-08-07T09:17:02.613Z,99.90
2017-08-07T09:19:30.171Z,95.50
2017-08-07T09:21:57.708Z,99.10
2017-08-07T09:24:25.274Z,95.50
2017-08-07T09:26:52.838Z,99.90
2017-08-07T09:29:20.382Z,99.90
2017-08-07T09:31:47.963Z,98.00
2017-08-07T09:34:15.502Z,94.10
2017-08-07T09:36:43.086Z,92.50
2017-08-07T09:39:10.646Z,94.20
2017-08-07T09:41:38.214Z,92.60
2017-08-07T09:44:05.777Z,95.90
2017-08-07T09:46:33.328Z,94.10
2017-08-07T09:49:00.890Z,95.40
2017-08-07T09:51:28.450Z,99.90
2017-08-07T09:53:56.105Z,96.10
2017-08-07T09:56:23.677Z,98.70
2017-08-07T09:58:51.238Z,92.90
2017-08-07T10:01:18.772Z,90.00
2017-08-07T10:03:46.302Z,94.40
2017-08-07T10:06:14.631Z,87.20
2017-08-07T10:08:42.161Z,86.10
2017-08-07T10:11:09.720Z,94.00
2017-08-07T10:13:37.255Z,91.60
2017-08-07T10:16:04.797Z,87.80
2017-08-07T10:18:32.387Z,80.20
2017-08-07T10:21:00.690Z,75.30
2017-08-07T10:23:28.243Z,74.70
2017-08-07T10:25:55.842Z,81.70
2017-08-07T10:28:23.409Z,90.60
2017-08-07T10:30:50.938Z,93.20
2017-08-07T10:33:18.522Z,85.50
2017-08-07T10:35:46.086Z,84.70
2017-08-07T10:38:13.645Z,85.40
2017-08-07T10:40:41.196Z,86.90
2017-08-07T10:43:08.858Z,73.40
2017-08-07T10:45:36.419Z,79.00
2017-08-07T10:48:03.949Z,74.30
2017-08-07T10:50:32.269Z,80.60
2017-08-07T10:52:59.794Z,81.00
2017-08-07T10:55:27.334Z,74.70
2017-08-07T10:57:55.639Z,74.70
2017-08-07T11:00:23.235Z,74.80
2017-08-07T11:02:50.785Z,81.50
2017-08-07T11:05:18.357Z,70.50
2017-08-07T11:07:45.990Z,82.60
2017-08-07T11:10:13.570Z,82.20
2017-08-07T11:12:41.223Z,82.40
2017-08-07T11:15:09.056Z,75.70
2017-08-07T11:17:37.498Z,82.30
2017-08-07T11:20:05.138Z,82.50
2017-08-07T11:22:32.700Z,69.40
2017-08-07T11:25:00.268Z,72.20
2017-08-07T11:27:27.827Z,66.30
2017-08-07T11:29:55.382Z,72.70
2017-08-07T11:32:23.043Z,81.00
2017-08-07T11:34:50.605Z,83.70
2017-08-07T11:37:18.158Z,68.20
2017-08-07T11:39:45.685Z,84.50
2017-08-07T11:42:13.982Z,70.10
2017-08-07T11:44:41.570Z,69.70
2017-08-07T11:47:09.133Z,77.10
2017-08-07T11:49:36.669Z,78.00
2017-08-07T11:52:04.251Z,86.50
2017-08-07T11:54:31.787Z,76.50
2017-08-07T11:56:59.369Z,81.20
2017-08-07T11:59:26.891Z,82.00
2017-08-07T12:01:55.206Z,79.50
2017-08-07T12:04:22.766Z,79.70
2017-08-07T12:06:50.332Z,75.00
2017-08-07T12:09:17.899Z,73.10
2017-08-07T12:11:45.424Z,78.30
2017-08-07T12:14:12.973Z,74.10
2017-08-07T12:16:41.276Z,70.00
2017-08-07T12:19:08.864Z,70.20
2017-08-07T12:21:36.421Z,79.80
2017-08-07T12:24:03.982Z,72.80
2017-08-07T12:29:32.382Z,77.20
2017-08-07T12:31:59.934Z,79.60
2017-08-07T12:34:27.500Z,74.00
2017-08-07T12:36:55.034Z,70.20
2017-08-07T12:39:22.625Z,70.20
2017-08-07T12:41:50.191Z,71.20
2017-08-07T12:44:17.723Z,79.60
2017-08-07T12:46:45.310Z,75.50
2017-08-07T12:49:12.863Z,72.70
2017-08-07T12:51:40.531Z,75.30
2017-08-07T12:54:08.079Z,78.60
2017-08-07T12:56:35.628Z,70.70
2017-08-07T12:59:03.211Z,75.10
2017-08-07T13:01:30.762Z,68.80
2017-08-07T13:03:58.348Z,74.50
2017-08-07T13:06:25.901Z,75.60
2017-08-07T13:08:53.446Z,78.00
2017-08-07T13:11:21.014Z,68.70
2017-08-07T13:13:48.573Z,75.00
2017-08-07T13:16:16.126Z,72.40
2017-08-07T13:18:43.658Z,70.70
2017-08-07T13:21:11.960Z,68.10
2017-08-07T13:23:39.525Z,68.10
2017-08-07T13:26:07.095Z,68.60
2017-08-07T13:28:34.763Z,72.70
2017-08-07T13:31:02.315Z,78.90
2017-08-07T13:33:29.949Z,82.40
2017-08-07T13:35:57.553Z,73.00
2017-08-07T13:38:25.114Z,69.40
2017-08-07T13:40:52.642Z,76.70
2017-08-07T13:43:20.229Z,76.50
2017-08-07T13:45:47.794Z,74.20
2017-08-07T13:48:15.446Z,80.50
2017-08-07T13:50:43.014Z,79.80
2017-08-07T13:53:10.574Z,76.70
2017-08-07T13:55:38.102Z,81.00
2017-08-07T13:58:05.685Z,74.90
2017-08-07T14:00:33.249Z,71.90
2017-08-07T14:03:00.812Z,72.00
2017-08-07T14:05:28.380Z,73.50
2017-08-07T14:07:55.947Z,70.90
2017-08-07T14:10:23.486Z,73.50
2017-08-07T14:12:51.050Z,67.90
2017-08-07T14:15:18.709Z,69.40
2017-08-07T14:17:46.286Z,70.70
2017-08-07T14:20:13.835Z,72.10
2017-08-07T14:22:41.406Z,70.70
2017-08-07T14:25:09.058Z,67.50
2017-08-07T14:27:36.621Z,71.00
2017-08-07T14:30:04.151Z,75.20
2017-08-07T14:32:31.702Z,73.60
2017-08-07T14:35:00.022Z,76.70
2017-08-07T14:37:27.554Z,76.60
2017-08-07T14:39:55.946Z,69.80
2017-08-07T14:42:23.480Z,76.00
2017-08-07T14:44:51.771Z,68.30
2017-08-07T14:47:19.361Z,68.00
2017-08-07T14:49:46.922Z,69.20
2017-08-07T14:52:14.454Z,67.90
2017-08-07T14:54:42.051Z,66.80
2017-08-07T14:57:09.587Z,69.80
2017-08-07T14:59:37.162Z,67.50
2017-08-07T15:02:04.711Z,67.00
2017-08-07T15:04:32.242Z,71.60
2017-08-07T15:07:00.566Z,67.20
2017-08-07T15:09:28.234Z,67.40
2017-08-07T15:11:55.786Z,73.40
2017-08-07T15:14:23.325Z,67.60
2017-08-07T15:16:50.918Z,65.80
2017-08-07T15:19:18.497Z,64.70
2017-08-07T15:21:46.133Z,71.20
2017-08-07T15:24:13.662Z,72.70
2017-08-07T15:26:41.194Z,70.60
2017-08-07T15:29:08.738Z,74.50
2017-08-07T15:31:36.272Z,73.80
2017-08-07T15:34:03.848Z,68.90
2017-08-07T15:36:31.369Z,70.30
2017-08-07T15:38:58.895Z,70.50
2017-08-07T15:41:26.522Z,69.40
2017-08-07T15:43:54.085Z,70.00
2017-08-07T15:46:21.609Z,67.00
2017-08-07T15:48:49.138Z,72.50
2017-08-07T15:51:16.758Z,70.30
2017-08-07T15:53:44.322Z,74.50
2017-08-07T15:56:11.878Z,64.90
2017-08-07T15:58:39.437Z,69.30
2017-08-07T16:01:07.006Z,69.00
2017-08-07T16:03:34.544Z,72.60
2017-08-07T16:06:02.076Z,73.80
2017-08-07T16:08:30.402Z,66.10
2017-08-07T16:10:57.966Z,65.60
2017-08-07T16:13:25.497Z,70.90
2017-08-07T16:15:53.018Z,69.30
2017-08-07T16:18:20.648Z,70.10
2017-08-07T16:20:48.306Z,65.70
2017-08-07T16:23:15.866Z,67.20
2017-08-07T16:25:43.430Z,68.20
2017-08-07T16:28:11.002Z,67.40
2017-08-07T16:30:38.527Z,74.90
2017-08-07T16:33:06.063Z,72.30
2017-08-07T16:35:34.358Z,68.10
2017-08-07T16:38:01.895Z,67.30
2017-08-07T16:40:30.208Z,68.50
2017-08-07T16:42:57.748Z,68.10
2017-08-07T16:45:26.042Z,71.60
2017-08-07T16:47:53.597Z,71.60
2017-08-07T16:50:21.127Z,74.00
2017-08-07T16:52:48.742Z,72.50
2017-08-07T16:55:16.315Z,67.00
2017-08-07T16:57:43.965Z,73.10
2017-08-07T17:00:11.547Z,68.60
2017-08-07T17:02:39.200Z,70.40
2017-08-07T17:05:06.762Z,70.80
2017-08-07T17:07:34.313Z,70.70
2017-08-07T17:10:01.842Z,71.20
2017-08-07T17:12:30.134Z,71.20
2017-08-07T17:14:57.714Z,71.20
2017-08-07T17:17:25.274Z,71.40
2017-08-07T17:19:52.847Z,69.10
2017-08-07T17:22:20.376Z,71.50
2017-08-07T17:24:47.935Z,69.80
2017-08-07T17:27:15.523Z,68.90
2017-08-07T17:29:43.074Z,70.10
2017-08-07T17:32:10.608Z,68.30
2017-08-07T17:34:38.162Z,70.70
2017-08-07T17:37:06.686Z,75.20
2017-08-07T17:39:34.259Z,75.30
2017-08-07T17:42:01.802Z,80.40
2017-08-07T17:44:29.423Z,81.60
2017-08-07T17:46:57.719Z,83.00
2017-08-07T17:49:25.267Z,83.10
2017-08-07T17:51:52.815Z,87.40
2017-08-07T17:54:21.134Z,90.20
2017-08-07T17:56:48.661Z,89.80
2017-08-07T17:59:16.955Z,91.20
2017-08-07T18:01:44.553Z,91.30
2017-08-07T18:04:12.084Z,90.90
2017-08-07T18:06:39.646Z,92.20
2017-08-07T18:09:07.176Z,92.50
2017-08-07T18:11:35.500Z,94.00
2017-08-07T18:14:03.061Z,94.00
2017-08-07T18:16:30.634Z,94.40
2017-08-07T18:18:58.169Z,95.10
2017-08-07T18:21:25.706Z,95.90
2017-08-07T18:23:54.012Z,97.60
2017-08-07T18:26:21.583Z,97.60
2017-08-07T18:28:49.150Z,98.50
2017-08-07T18:31:16.682Z,98.60
2017-08-07T18:33:44.274Z,98.20
2017-08-07T18:36:11.822Z,99.50
2017-08-07T18:38:39.405Z,98.60
2017-08-07T18:41:06.946Z,99.90
2017-08-07T18:43:34.522Z,99.90
2017-08-07T18:46:02.051Z,99.90
2017-08-07T18:48:29.630Z,99.90
2017-08-07T18:50:57.164Z,99.90
2017-08-07T18:53:24.734Z,99.90
2017-08-07T18:55:52.738Z,99.90
2017-08-07T18:58:20.335Z,99.90
2017-08-07T19:00:48.645Z,99.90
2017-08-07T19:03:16.221Z,99.90
2017-08-07T19:05:43.790Z,99.90
2017-08-07T19:08:11.322Z,99.90
2017-08-07T19:10:38.874Z,99.90
2017-08-07T19:13:06.413Z,99.90
2017-08-07T19:15:33.999Z,99.90
2017-08-07T19:18:01.601Z,99.90
2017-08-07T19:20:29.262Z,99.90
2017-08-07T19:22:56.842Z,99.90
2017-08-07T19:25:24.442Z,99.90
2017-08-07T19:27:52.725Z,99.90
2017-08-07T19:30:20.327Z,99.90
2017-08-07T19:32:47.886Z,99.90
2017-08-07T19:35:15.410Z,99.90
2017-08-07T19:37:43.002Z,99.90
2017-08-07T19:40:10.534Z,99.90
2017-08-07T19:42:38.061Z,99.90
2017-08-07T19:45:05.592Z,99.90
2017-08-07T19:47:33.146Z,99.90
2017-08-07T19:50:00.703Z,99.90
2017-08-07T19:52:28.266Z,99.90
2017-08-07T19:54:55.825Z,99.90
2017-08-07T19:57:23.482Z,99.90
2017-08-07T19:59:51.006Z,99.90
2017-08-07T20:02:19.330Z,99.90
2017-08-07T20:04:46.886Z,99.90
2017-08-07T20:07:14.444Z,99.90
2017-08-07T20:09:41.974Z,99.90
2017-08-07T20:12:09.534Z,99.90
2017-08-07T20:14:37.226Z,99.90
2017-08-07T20:17:04.796Z,99.90
2017-08-07T20:19:32.352Z,99.90
2017-08-07T20:21:59.917Z,99.90
2017-08-07T20:24:27.574Z,99.90
2017-08-07T20:26:55.094Z,99.90
2017-08-07T20:29:23.418Z,99.90
2017-08-07T20:31:50.979Z,99.90
2017-08-07T20:34:19.454Z,99.90
2017-08-07T20:36:46.982Z,99.90
2017-08-07T20:39:15.389Z,99.90
2017-08-07T20:41:42.916Z,99.90
2017-08-07T20:44:11.219Z,99.90
2017-08-07T20:46:38.770Z,99.90
2017-08-07T20:49:06.375Z,99.90
2017-08-07T20:51:33.906Z,99.90
2017-08-07T20:54:01.445Z,99.90
2017-08-07T20:56:29.748Z,99.90
2017-08-07T20:58:57.291Z,99.90
2017-08-07T21:01:24.882Z,99.90
2017-08-07T21:03:52.442Z,99.90
2017-08-07T21:06:19.984Z,99.90
2017-08-07T21:08:47.519Z,99.90
2017-08-07T21:11:15.837Z,99.90
2017-08-07T21:13:43.370Z,99.90
2017-08-07T21:16:10.905Z,99.90
2017-08-07T21:18:38.532Z,99.90
2017-08-07T21:21:06.110Z,99.90
2017-08-07T21:23:33.647Z,99.90
2017-08-07T21:26:01.179Z,99.90
2017-08-07T21:28:28.708Z,99.90
2017-08-07T21:30:56.330Z,99.90
2017-08-07T21:33:23.894Z,99.90
2017-08-07T21:35:51.418Z,99.90
2017-08-07T21:38:18.951Z,99.90
2017-08-07T21:40:46.574Z,99.90
2017-08-07T21:43:14.343Z,99.90
2017-08-07T21:45:41.871Z,99.90
2017-08-07T21:48:09.402Z,99.90
2017-08-07T21:50:37.027Z,99.90
2017-08-07T21:53:04.580Z,99.90
2017-08-07T21:55:32.142Z,99.90
2017-08-07T21:57:59.807Z,99.90
2017-08-07T22:00:27.362Z,99.90
2017-08-07T22:02:54.889Z,99.90
2017-08-07T22:05:23.206Z,99.90
2017-08-07T22:07:50.762Z,99.90
2017-08-07T22:10:18.326Z,99.90
2017-08-07T22:12:45.866Z,99.90
2017-08-07T22:15:13.459Z,99.90
2017-08-07T22:17:40.994Z,99.90
2017-08-07T22:20:08.551Z,99.90
2017-08-07T22:22:36.091Z,99.90
2017-08-07T22:25:04.500Z,99.90
2017-08-07T22:27:32.066Z,99.90
2017-08-07T22:29:59.622Z,99.90
2017-08-07T22:32:27.157Z,99.90
2017-08-07T22:34:54.746Z,99.90
2017-08-07T22:37:22.311Z,99.90
2017-08-07T22:39:49.846Z,99.90
2017-08-07T22:42:17.379Z,99.90
2017-08-07T22:44:45.710Z,99.90
2017-08-07T22:47:13.242Z,99.90
2017-08-07T22:49:40.778Z,99.90
2017-08-07T22:52:09.090Z,99.90
2017-08-07T22:54:36.679Z,99.90
2017-08-07T22:57:04.330Z,99.90
2017-08-07T22:59:31.865Z,99.90
2017-08-07T23:01:59.398Z,99.90
2017-08-07T23:04:27.735Z,99.90
2017-08-07T23:06:55.263Z,99.90
2017-08-07T23:09:22.794Z,99.90
2017-08-07T23:11:50.409Z,99.90
2017-08-07T23:14:17.974Z,99.90
2017-08-07T23:16:45.501Z,99.90
2017-08-07T23:19:13.043Z,99.90
2017-08-07T23:21:41.373Z,99.90
2017-08-07T23:24:08.929Z,99.90
2017-08-07T23:26:36.454Z,99.90
2017-08-07T23:29:04.786Z,99.90
2017-08-07T23:31:32.309Z,99.90
2017-08-07T23:33:59.846Z,99.90
2017-08-07T23:36:28.173Z,99.90
2017-08-07T23:38:55.748Z,99.90
2017-08-07T23:41:23.311Z,99.90
2017-08-07T23:43:50.838Z,99.90
2017-08-07T23:46:18.426Z,99.90
2017-08-07T23:48:45.954Z,99.90
2017-08-07T23:51:13.479Z,99.90
2017-08-07T23:53:41.017Z,99.90
2017-08-07T23:56:08.571Z,99.90
2017-08-07T23:58:36.108Z,99.90
